sensor_id;sensor_type;location;lat;lon;timestamp;pressure;altitude;pressure_sealevel;temperature;humidity
61292;BME280;47165;42.664;23.368;2024-03-08T00:00:14;95057.19;;;9.54;63.20
61292;BME280;47165;42.664;23.368;2024-03-08T00:02:40;95065.84;;;9.54;63.60
61292;BME280;47165;42.664;23.368;2024-03-08T00:05:08;95057.03;;;9.57;63.49
61292;BME280;47165;42.664;23.368;2024-03-08T00:07:37;95054.41;;;9.57;63.58
61292;BME280;47165;42.664;23.368;2024-03-08T00:10:04;95052.75;;;9.56;63.56
61292;BME280;47165;42.664;23.368;2024-03-08T00:12:30;95061.41;;;9.56;63.60
61292;BME280;47165;42.664;23.368;2024-03-08T00:14:56;95061.66;;;9.52;63.57
61292;BME280;47165;42.664;23.368;2024-03-08T00:17:21;95052.97;;;9.51;63.63
61292;BME280;47165;42.664;23.368;2024-03-08T00:19:53;95061.47;;;9.55;63.62
61292;BME280;47165;42.664;23.368;2024-03-08T00:22:19;95054.28;;;9.60;63.46
61292;BME280;47165;42.664;23.368;2024-03-08T00:24:44;95051.75;;;9.58;63.24
61292;BME280;47165;42.664;23.368;2024-03-08T00:27:10;95055.25;;;9.57;63.37
61292;BME280;47165;42.664;23.368;2024-03-08T00:29:36;95051.88;;;9.55;63.40
61292;BME280;47165;42.664;23.368;2024-03-08T00:32:04;95043.16;;;9.56;62.96
61292;BME280;47165;42.664;23.368;2024-03-08T00:34:29;95037.25;;;9.53;63.25
61292;BME280;47165;42.664;23.368;2024-03-08T00:36:55;95044.81;;;9.57;63.50
61292;BME280;47165;42.664;23.368;2024-03-08T00:39:20;95046.53;;;9.58;63.31
61292;BME280;47165;42.664;23.368;2024-03-08T00:41:46;95041.25;;;9.60;63.06
61292;BME280;47165;42.664;23.368;2024-03-08T00:44:12;95043.84;;;9.60;63.45
61292;BME280;47165;42.664;23.368;2024-03-08T00:46:38;95036.09;;;9.58;63.25
61292;BME280;47165;42.664;23.368;2024-03-08T00:49:03;95035.41;;;9.55;63.56
61292;BME280;47165;42.664;23.368;2024-03-08T00:51:29;95032.81;;;9.55;63.59
61292;BME280;47165;42.664;23.368;2024-03-08T00:53:54;95030.38;;;9.52;64.06
61292;BME280;47165;42.664;23.368;2024-03-08T00:56:21;95030.13;;;9.56;64.21
61292;BME280;47165;42.664;23.368;2024-03-08T00:58:46;95027.66;;;9.53;63.95
61292;BME280;47165;42.664;23.368;2024-03-08T01:01:13;95022.44;;;9.53;63.72
61292;BME280;47165;42.664;23.368;2024-03-08T01:03:43;95021.78;;;9.50;63.72
61292;BME280;47165;42.664;23.368;2024-03-08T01:06:08;95017.34;;;9.52;63.53
61292;BME280;47165;42.664;23.368;2024-03-08T01:08:35;95016.72;;;9.46;63.80
61292;BME280;47165;42.664;23.368;2024-03-08T01:11:04;95016.56;;;9.50;63.79
61292;BME280;47165;42.664;23.368;2024-03-08T01:13:30;95010.75;;;9.44;63.55
61292;BME280;47165;42.664;23.368;2024-03-08T01:15:55;95009.91;;;9.44;63.76
61292;BME280;47165;42.664;23.368;2024-03-08T01:18:21;95008.16;;;9.44;63.49
61292;BME280;47165;42.664;23.368;2024-03-08T01:20:46;95008.31;;;9.41;63.39
61292;BME280;47165;42.664;23.368;2024-03-08T01:23:12;95009.16;;;9.42;63.20
61292;BME280;47165;42.664;23.368;2024-03-08T01:25:38;95011.00;;;9.40;63.55
61292;BME280;47165;42.664;23.368;2024-03-08T01:28:04;95001.41;;;9.40;63.31
61292;BME280;47165;42.664;23.368;2024-03-08T01:30:29;95006.63;;;9.40;63.16
61292;BME280;47165;42.664;23.368;2024-03-08T01:32:58;95003.94;;;9.42;63.10
61292;BME280;47165;42.664;23.368;2024-03-08T01:35:24;94998.38;;;9.32;63.18
61292;BME280;47165;42.664;23.368;2024-03-08T01:37:51;95000.22;;;9.30;63.49
61292;BME280;47165;42.664;23.368;2024-03-08T01:40:17;94995.94;;;9.29;63.75
61292;BME280;47165;42.664;23.368;2024-03-08T01:42:43;94998.53;;;9.29;64.01
61292;BME280;47165;42.664;23.368;2024-03-08T01:45:10;94994.09;;;9.31;64.24
61292;BME280;47165;42.664;23.368;2024-03-08T01:47:35;94994.84;;;9.33;64.13
61292;BME280;47165;42.664;23.368;2024-03-08T01:50:02;94993.97;;;9.33;64.03
61292;BME280;47165;42.664;23.368;2024-03-08T01:52:32;95003.44;;;9.35;63.62
61292;BME280;47165;42.664;23.368;2024-03-08T01:55:03;94991.47;;;9.31;63.85
61292;BME280;47165;42.664;23.368;2024-03-08T01:57:32;94988.94;;;9.30;64.11
61292;BME280;47165;42.664;23.368;2024-03-08T02:00:00;94992.63;;;9.25;63.63
61292;BME280;47165;42.664;23.368;2024-03-08T02:02:32;94991.09;;;9.21;63.64
61292;BME280;47165;42.664;23.368;2024-03-08T02:04:57;94988.44;;;9.23;63.98
61292;BME280;47165;42.664;23.368;2024-03-08T02:07:23;94991.03;;;9.23;64.13
61292;BME280;47165;42.664;23.368;2024-03-08T02:09:48;94994.63;;;9.20;63.48
61292;BME280;47165;42.664;23.368;2024-03-08T02:12:14;94994.78;;;9.17;63.54
61292;BME280;47165;42.664;23.368;2024-03-08T02:14:39;94995.31;;;9.24;63.28
61292;BME280;47165;42.664;23.368;2024-03-08T02:17:05;94985.22;;;9.18;62.69
61292;BME280;47165;42.664;23.368;2024-03-08T02:19:30;94988.44;;;9.23;62.04
61292;BME280;47165;42.664;23.368;2024-03-08T02:21:58;94987.56;;;9.22;62.03
61292;BME280;47165;42.664;23.368;2024-03-08T02:24:24;94992.25;;;9.16;61.65
61292;BME280;47165;42.664;23.368;2024-03-08T02:26:50;94993.97;;;9.17;61.46
61292;BME280;47165;42.664;23.368;2024-03-08T02:29:16;94999.25;;;9.15;61.79
61292;BME280;47165;42.664;23.368;2024-03-08T02:31:42;95001.69;;;9.18;62.02
61292;BME280;47165;42.664;23.368;2024-03-08T02:34:07;95004.38;;;9.17;62.84
61292;BME280;47165;42.664;23.368;2024-03-08T02:36:34;95008.06;;;9.13;63.25
61292;BME280;47165;42.664;23.368;2024-03-08T02:39:03;95006.44;;;9.10;63.18
61292;BME280;47165;42.664;23.368;2024-03-08T02:41:30;95009.91;;;9.11;63.07
61292;BME280;47165;42.664;23.368;2024-03-08T02:43:56;95006.22;;;9.15;62.58
61292;BME280;47165;42.664;23.368;2024-03-08T02:46:21;95006.38;;;9.12;62.40
61292;BME280;47165;42.664;23.368;2024-03-08T02:48:47;95006.38;;;9.12;62.34
61292;BME280;47165;42.664;23.368;2024-03-08T02:51:12;95003.00;;;9.10;61.35
61292;BME280;47165;42.664;23.368;2024-03-08T02:53:41;95006.44;;;9.10;61.06
61292;BME280;47165;42.664;23.368;2024-03-08T02:58:43;95002.22;;;9.07;59.68
61292;BME280;47165;42.664;23.368;2024-03-08T03:01:14;95005.78;;;9.06;60.08
61292;BME280;47165;42.664;23.368;2024-03-08T03:03:40;95014.66;;;9.02;59.68
61292;BME280;47165;42.664;23.368;2024-03-08T03:06:06;95017.88;;;8.90;60.16
61292;BME280;47165;42.664;23.368;2024-03-08T03:08:32;95014.22;;;8.94;59.44
61292;BME280;47165;42.664;23.368;2024-03-08T03:10:58;95010.66;;;8.95;59.04
61292;BME280;47165;42.664;23.368;2024-03-08T03:13:23;95024.63;;;8.94;58.79
61292;BME280;47165;42.664;23.368;2024-03-08T03:15:49;95009.00;;;8.94;58.47
61292;BME280;47165;42.664;23.368;2024-03-08T03:18:14;95010.97;;;8.89;58.58
61292;BME280;47165;42.664;23.368;2024-03-08T03:20:41;95023.84;;;8.92;57.96
61292;BME280;47165;42.664;23.368;2024-03-08T03:23:08;95021.91;;;8.96;57.75
61292;BME280;47165;42.664;23.368;2024-03-08T03:25:34;95022.94;;;8.93;58.02
61292;BME280;47165;42.664;23.368;2024-03-08T03:28:03;95022.78;;;8.96;57.86
61292;BME280;47165;42.664;23.368;2024-03-08T03:30:30;95024.84;;;8.90;57.64
61292;BME280;47165;42.664;23.368;2024-03-08T03:32:59;95026.47;;;8.92;57.74
61292;BME280;47165;42.664;23.368;2024-03-08T03:38:01;95037.25;;;8.84;57.90
61292;BME280;47165;42.664;23.368;2024-03-08T03:40:33;95031.97;;;8.86;57.70
61292;BME280;47165;42.664;23.368;2024-03-08T03:43:00;95034.59;;;8.86;57.30
61292;BME280;47165;42.664;23.368;2024-03-08T03:45:26;95032.94;;;8.83;57.09
61292;BME280;47165;42.664;23.368;2024-03-08T03:47:51;95041.00;;;8.79;57.28
61292;BME280;47165;42.664;23.368;2024-03-08T03:50:20;95041.69;;;8.82;57.14
61292;BME280;47165;42.664;23.368;2024-03-08T03:52:46;95046.19;;;8.79;57.68
61292;BME280;47165;42.664;23.368;2024-03-08T03:55:12;95040.94;;;8.80;57.39
61292;BME280;47165;42.664;23.368;2024-03-08T03:57:39;95045.44;;;8.77;57.59
61292;BME280;47165;42.664;23.368;2024-03-08T04:00:05;95050.56;;;8.78;57.50
61292;BME280;47165;42.664;23.368;2024-03-08T04:02:31;95044.66;;;8.75;58.26
61292;BME280;47165;42.664;23.368;2024-03-08T04:04:57;95051.63;;;8.74;58.11
61292;BME280;47165;42.664;23.368;2024-03-08T04:07:22;95056.63;;;8.79;57.86
61292;BME280;47165;42.664;23.368;2024-03-08T04:09:47;95058.44;;;8.77;58.07
61292;BME280;47165;42.664;23.368;2024-03-08T04:12:13;95054.94;;;8.78;57.70
61292;BME280;47165;42.664;23.368;2024-03-08T04:14:42;95056.78;;;8.76;57.06
61292;BME280;47165;42.664;23.368;2024-03-08T04:17:07;95057.91;;;8.70;57.33
61292;BME280;47165;42.664;23.368;2024-03-08T04:19:34;95050.34;;;8.65;57.53
61292;BME280;47165;42.664;23.368;2024-03-08T04:22:00;95060.28;;;8.75;57.12
61292;BME280;47165;42.664;23.368;2024-03-08T04:24:26;95065.34;;;8.78;56.38
61292;BME280;47165;42.664;23.368;2024-03-08T04:26:52;95064.78;;;8.71;56.19
61292;BME280;47165;42.664;23.368;2024-03-08T04:29:18;95066.03;;;8.64;56.60
61292;BME280;47165;42.664;23.368;2024-03-08T04:31:43;95075.59;;;8.63;56.80
61292;BME280;47165;42.664;23.368;2024-03-08T04:34:09;95073.00;;;8.63;56.53
61292;BME280;47165;42.664;23.368;2024-03-08T04:36:35;95084.06;;;8.67;56.76
61292;BME280;47165;42.664;23.368;2024-03-08T04:39:00;95080.56;;;8.68;56.60
61292;BME280;47165;42.664;23.368;2024-03-08T04:41:26;95082.34;;;8.68;56.32
61292;BME280;47165;42.664;23.368;2024-03-08T04:43:51;95088.59;;;8.63;56.62
61292;BME280;47165;42.664;23.368;2024-03-08T04:46:17;95083.41;;;8.63;56.64
61292;BME280;47165;42.664;23.368;2024-03-08T04:48:43;95081.69;;;8.62;56.64
61292;BME280;47165;42.664;23.368;2024-03-08T04:51:08;95086.84;;;8.64;57.40
61292;BME280;47165;42.664;23.368;2024-03-08T04:53:35;95085.84;;;8.66;57.53
61292;BME280;47165;42.664;23.368;2024-03-08T04:56:00;95084.25;;;8.64;57.09
61292;BME280;47165;42.664;23.368;2024-03-08T04:58:31;95087.97;;;8.58;57.79
61292;BME280;47165;42.664;23.368;2024-03-08T05:00:57;95093.94;;;8.60;58.41
61292;BME280;47165;42.664;23.368;2024-03-08T05:03:22;95094.78;;;8.61;59.14
61292;BME280;47165;42.664;23.368;2024-03-08T05:05:51;95091.34;;;8.60;58.56
61292;BME280;47165;42.664;23.368;2024-03-08T05:08:19;95093.41;;;8.54;58.54
61292;BME280;47165;42.664;23.368;2024-03-08T05:10:45;95099.44;;;8.54;58.55
61292;BME280;47165;42.664;23.368;2024-03-08T05:13:11;95105.56;;;8.53;58.69
61292;BME280;47165;42.664;23.368;2024-03-08T05:18:29;95105.66;;;8.52;58.81
61292;BME280;47165;42.664;23.368;2024-03-08T05:20:57;95112.31;;;8.57;59.00
61292;BME280;47165;42.664;23.368;2024-03-08T05:23:22;95114.69;;;8.62;58.52
61292;BME280;47165;42.664;23.368;2024-03-08T05:25:48;95126.72;;;8.64;58.80
61292;BME280;47165;42.664;23.368;2024-03-08T05:28:13;95122.34;;;8.65;59.36
61292;BME280;47165;42.664;23.368;2024-03-08T05:30:39;95133.63;;;8.65;59.38
61292;BME280;47165;42.664;23.368;2024-03-08T05:33:04;95136.13;;;8.67;60.10
61292;BME280;47165;42.664;23.368;2024-03-08T05:35:30;95139.78;;;8.63;60.48
61292;BME280;47165;42.664;23.368;2024-03-08T05:37:55;95137.06;;;8.66;60.58
61292;BME280;47165;42.664;23.368;2024-03-08T05:40:21;95142.88;;;8.71;60.43
61292;BME280;47165;42.664;23.368;2024-03-08T05:42:46;95143.09;;;8.66;60.39
61292;BME280;47165;42.664;23.368;2024-03-08T05:45:12;95152.75;;;8.64;60.56
61292;BME280;47165;42.664;23.368;2024-03-08T05:47:39;95153.59;;;8.65;60.61
61292;BME280;47165;42.664;23.368;2024-03-08T05:50:05;95157.53;;;8.74;60.59
61292;BME280;47165;42.664;23.368;2024-03-08T05:52:32;95160.19;;;8.72;60.75
61292;BME280;47165;42.664;23.368;2024-03-08T05:54:58;95157.44;;;8.75;60.84
61292;BME280;47165;42.664;23.368;2024-03-08T05:57:24;95164.13;;;8.81;60.92
61292;BME280;47165;42.664;23.368;2024-03-08T05:59:49;95163.41;;;8.77;60.60
61292;BME280;47165;42.664;23.368;2024-03-08T06:02:14;95168.91;;;8.71;60.31
61292;BME280;47165;42.664;23.368;2024-03-08T06:04:45;95176.53;;;8.76;60.20
61292;BME280;47165;42.664;23.368;2024-03-08T06:07:13;95179.31;;;8.71;59.75
61292;BME280;47165;42.664;23.368;2024-03-08T06:09:39;95182.78;;;8.72;59.75
61292;BME280;47165;42.664;23.368;2024-03-08T06:12:05;95187.34;;;8.66;60.11
61292;BME280;47165;42.664;23.368;2024-03-08T06:14:32;95183.00;;;8.67;59.82
61292;BME280;47165;42.664;23.368;2024-03-08T06:16:57;95196.88;;;8.68;59.81
61292;BME280;47165;42.664;23.368;2024-03-08T06:19:23;95194.41;;;8.64;59.89
61292;BME280;47165;42.664;23.368;2024-03-08T06:24:16;95192.56;;;8.66;60.61
61292;BME280;47165;42.664;23.368;2024-03-08T06:26:42;95193.28;;;8.70;59.90
61292;BME280;47165;42.664;23.368;2024-03-08T06:29:07;95196.88;;;8.68;59.89
61292;BME280;47165;42.664;23.368;2024-03-08T06:31:33;95205.28;;;8.73;59.70
61292;BME280;47165;42.664;23.368;2024-03-08T06:33:59;95198.75;;;8.64;59.21
61292;BME280;47165;42.664;23.368;2024-03-08T06:36:24;95203.13;;;8.63;59.59
61292;BME280;47165;42.664;23.368;2024-03-08T06:38:50;95202.25;;;8.63;60.04
61292;BME280;47165;42.664;23.368;2024-03-08T06:41:15;95202.41;;;8.60;59.59
61292;BME280;47165;42.664;23.368;2024-03-08T06:43:45;95207.47;;;8.63;59.27
61292;BME280;47165;42.664;23.368;2024-03-08T06:46:12;95204.25;;;8.58;59.36
61292;BME280;47165;42.664;23.368;2024-03-08T06:48:38;95204.97;;;8.61;59.95
61292;BME280;47165;42.664;23.368;2024-03-08T06:51:04;95211.56;;;8.69;60.18
61292;BME280;47165;42.664;23.368;2024-03-08T06:53:31;95207.34;;;8.66;59.43
61292;BME280;47165;42.664;23.368;2024-03-08T06:55:57;95213.09;;;8.73;59.06
61292;BME280;47165;42.664;23.368;2024-03-08T06:58:23;95213.94;;;8.73;58.91
61292;BME280;47165;42.664;23.368;2024-03-08T07:00:48;95218.31;;;8.73;58.71
61292;BME280;47165;42.664;23.368;2024-03-08T07:03:17;95219.16;;;8.73;58.29
61292;BME280;47165;42.664;23.368;2024-03-08T07:05:43;95212.22;;;8.74;57.22
61292;BME280;47165;42.664;23.368;2024-03-08T07:08:09;95214.66;;;8.77;57.62
61292;BME280;47165;42.664;23.368;2024-03-08T07:10:34;95211.28;;;8.75;57.79
61292;BME280;47165;42.664;23.368;2024-03-08T07:13:02;95219.84;;;8.77;57.96
61292;BME280;47165;42.664;23.368;2024-03-08T07:15:28;95219.56;;;8.83;58.10
61292;BME280;47165;42.664;23.368;2024-03-08T07:17:54;95219.50;;;8.84;57.38
61292;BME280;47165;42.664;23.368;2024-03-08T07:20:20;95216.75;;;8.88;56.87
61292;BME280;47165;42.664;23.368;2024-03-08T07:22:46;95220.00;;;8.93;56.39
61292;BME280;47165;42.664;23.368;2024-03-08T07:25:18;95221.38;;;9.00;56.29
61292;BME280;47165;42.664;23.368;2024-03-08T07:27:53;95218.56;;;9.04;56.43
61292;BME280;47165;42.664;23.368;2024-03-08T07:30:20;95217.88;;;9.01;56.13
61292;BME280;47165;42.664;23.368;2024-03-08T07:33:05;95219.47;;;9.03;56.54
61292;BME280;47165;42.664;23.368;2024-03-08T07:35:32;95220.25;;;9.05;56.03
61292;BME280;47165;42.664;23.368;2024-03-08T07:37:58;95226.94;;;9.11;55.88
61292;BME280;47165;42.664;23.368;2024-03-08T07:40:25;95229.25;;;9.17;55.95
61292;BME280;47165;42.664;23.368;2024-03-08T07:42:51;95227.34;;;9.21;55.67
61292;BME280;47165;42.664;23.368;2024-03-08T07:45:16;95222.91;;;9.23;55.59
61292;BME280;47165;42.664;23.368;2024-03-08T07:47:42;95223.56;;;9.26;55.47
61292;BME280;47165;42.664;23.368;2024-03-08T07:50:08;95226.28;;;9.25;55.76
61292;BME280;47165;42.664;23.368;2024-03-08T07:52:34;95221.53;;;9.33;56.05
61292;BME280;47165;42.664;23.368;2024-03-08T07:55:01;95223.16;;;9.36;55.38
61292;BME280;47165;42.664;23.368;2024-03-08T07:57:26;95225.69;;;9.37;55.32
61292;BME280;47165;42.664;23.368;2024-03-08T07:59:51;95222.22;;;9.37;55.56
61292;BME280;47165;42.664;23.368;2024-03-08T08:02:17;95225.38;;;9.43;55.25
61292;BME280;47165;42.664;23.368;2024-03-08T08:04:42;95228.31;;;9.55;54.46
61292;BME280;47165;42.664;23.368;2024-03-08T08:07:10;95221.41;;;9.54;54.32
61292;BME280;47165;42.664;23.368;2024-03-08T08:09:36;95224.69;;;9.57;53.94
61292;BME280;47165;42.664;23.368;2024-03-08T08:12:01;95223.25;;;9.52;54.34
61292;BME280;47165;42.664;23.368;2024-03-08T08:14:29;95231.53;;;9.60;54.11
61292;BME280;47165;42.664;23.368;2024-03-08T08:16:56;95219.41;;;9.59;52.73
61292;BME280;47165;42.664;23.368;2024-03-08T08:19:22;95227.41;;;9.56;52.74
61292;BME280;47165;42.664;23.368;2024-03-08T08:21:48;95218.34;;;9.63;52.55
61292;BME280;47165;42.664;23.368;2024-03-08T08:24:14;95214.13;;;9.60;53.33
61292;BME280;47165;42.664;23.368;2024-03-08T08:26:40;95216.66;;;9.62;52.79
61292;BME280;47165;42.664;23.368;2024-03-08T08:29:07;95216.56;;;9.63;52.34
61292;BME280;47165;42.664;23.368;2024-03-08T08:31:32;95214.34;;;9.73;52.58
61292;BME280;47165;42.664;23.368;2024-03-08T08:33:58;95223.88;;;9.74;52.84
61292;BME280;47165;42.664;23.368;2024-03-08T08:36:25;95225.31;;;9.80;53.21
61292;BME280;47165;42.664;23.368;2024-03-08T08:38:50;95223.84;;;9.92;52.77
61292;BME280;47165;42.664;23.368;2024-03-08T08:41:19;95212.03;;;10.02;52.50
61292;BME280;47165;42.664;23.368;2024-03-08T08:43:44;95222.00;;;10.11;51.81
61292;BME280;47165;42.664;23.368;2024-03-08T08:46:10;95215.09;;;10.10;51.02
61292;BME280;47165;42.664;23.368;2024-03-08T08:48:39;95211.06;;;10.20;51.04
61292;BME280;47165;42.664;23.368;2024-03-08T08:51:11;95218.13;;;10.18;51.41
61292;BME280;47165;42.664;23.368;2024-03-08T08:53:41;95203.16;;;10.22;50.33
61292;BME280;47165;42.664;23.368;2024-03-08T08:56:08;95204.69;;;10.26;50.49
61292;BME280;47165;42.664;23.368;2024-03-08T08:58:34;95204.41;;;10.32;50.75
61292;BME280;47165;42.664;23.368;2024-03-08T09:00:59;95206.63;;;10.40;50.12
61292;BME280;47165;42.664;23.368;2024-03-08T09:03:25;95209.13;;;10.41;50.15
61292;BME280;47165;42.664;23.368;2024-03-08T09:05:52;95208.31;;;10.57;50.45
61292;BME280;47165;42.664;23.368;2024-03-08T09:08:18;95209.66;;;10.64;49.90
61292;BME280;47165;42.664;23.368;2024-03-08T09:10:43;95206.47;;;10.59;49.20
61292;BME280;47165;42.664;23.368;2024-03-08T09:13:09;95203.03;;;10.58;49.24
61292;BME280;47165;42.664;23.368;2024-03-08T09:15:37;95200.50;;;10.73;49.55
61292;BME280;47165;42.664;23.368;2024-03-08T09:18:05;95198.41;;;10.79;49.47
61292;BME280;47165;42.664;23.368;2024-03-08T09:20:31;95194.28;;;10.91;48.03
61292;BME280;47165;42.664;23.368;2024-03-08T09:22:57;95193.84;;;10.99;47.25
61292;BME280;47165;42.664;23.368;2024-03-08T09:25:22;95197.13;;;11.02;48.08
61292;BME280;47165;42.664;23.368;2024-03-08T09:27:47;95193.16;;;11.11;48.38
61292;BME280;47165;42.664;23.368;2024-03-08T09:30:14;95197.03;;;11.20;47.46
61292;BME280;47165;42.664;23.368;2024-03-08T09:32:40;95192.13;;;11.30;47.83
61292;BME280;47165;42.664;23.368;2024-03-08T09:35:06;95199.72;;;11.34;46.92
61292;BME280;47165;42.664;23.368;2024-03-08T09:37:33;95192.16;;;11.44;47.37
61292;BME280;47165;42.664;23.368;2024-03-08T09:39:59;95192.75;;;11.49;47.51
61292;BME280;47165;42.664;23.368;2024-03-08T09:42:26;95187.19;;;11.55;47.17
61292;BME280;47165;42.664;23.368;2024-03-08T09:44:51;95191.88;;;11.64;47.62
61292;BME280;47165;42.664;23.368;2024-03-08T09:47:17;95193.88;;;11.75;47.07
61292;BME280;47165;42.664;23.368;2024-03-08T09:49:43;95193.59;;;11.80;46.78
61292;BME280;47165;42.664;23.368;2024-03-08T09:52:09;95190.97;;;11.80;46.29
61292;BME280;47165;42.664;23.368;2024-03-08T09:54:35;95194.16;;;11.85;46.85
61292;BME280;47165;42.664;23.368;2024-03-08T09:57:03;95190.00;;;11.97;46.40
61292;BME280;47165;42.664;23.368;2024-03-08T09:59:29;95195.16;;;11.98;45.81
61292;BME280;47165;42.664;23.368;2024-03-08T10:01:57;95195.81;;;12.02;45.49
61292;BME280;47165;42.664;23.368;2024-03-08T10:04:25;95192.66;;;12.11;45.86
61292;BME280;47165;42.664;23.368;2024-03-08T10:06:53;95198.34;;;12.18;45.92
61292;BME280;47165;42.664;23.368;2024-03-08T10:09:19;95194.53;;;12.23;45.28
61292;BME280;47165;42.664;23.368;2024-03-08T10:11:46;95196.03;;;12.27;45.39
61292;BME280;47165;42.664;23.368;2024-03-08T10:14:11;95193.22;;;12.31;44.95
61292;BME280;47165;42.664;23.368;2024-03-08T10:16:38;95192.94;;;12.35;44.84
61292;BME280;47165;42.664;23.368;2024-03-08T10:19:04;95185.38;;;12.31;43.85
61292;BME280;47165;42.664;23.368;2024-03-08T10:21:32;95186.28;;;12.44;44.52
61292;BME280;47165;42.664;23.368;2024-03-08T10:23:58;95189.94;;;12.56;44.98
61292;BME280;47165;42.664;23.368;2024-03-08T10:26:24;95190.84;;;12.69;44.95
61292;BME280;47165;42.664;23.368;2024-03-08T10:28:51;95184.97;;;12.80;43.88
61292;BME280;47165;42.664;23.368;2024-03-08T10:31:20;95187.75;;;12.91;44.32
61292;BME280;47165;42.664;23.368;2024-03-08T10:33:46;95183.69;;;13.00;42.90
61292;BME280;47165;42.664;23.368;2024-03-08T10:36:13;95171.22;;;13.03;42.36
61292;BME280;47165;42.664;23.368;2024-03-08T10:38:40;95173.38;;;13.11;42.40
61292;BME280;47165;42.664;23.368;2024-03-08T10:41:08;95173.91;;;13.16;41.79
61292;BME280;47165;42.664;23.368;2024-03-08T10:44:00;95171.72;;;13.37;42.47
61292;BME280;47165;42.664;23.368;2024-03-08T10:49:00;95162.91;;;13.38;40.57
61292;BME280;47165;42.664;23.368;2024-03-08T10:51:29;95159.13;;;13.42;40.34
61292;BME280;47165;42.664;23.368;2024-03-08T10:53:57;95166.88;;;13.31;40.39
61292;BME280;47165;42.664;23.368;2024-03-08T10:56:23;95170.25;;;13.33;40.67
61292;BME280;47165;42.664;23.368;2024-03-08T10:58:53;95165.94;;;13.45;41.54
61292;BME280;47165;42.664;23.368;2024-03-08T11:01:19;95155.25;;;13.35;40.76
61292;BME280;47165;42.664;23.368;2024-03-08T11:03:47;95154.94;;;13.40;40.70
61292;BME280;47165;42.664;23.368;2024-03-08T11:06:17;95157.25;;;13.44;41.57
61292;BME280;47165;42.664;23.368;2024-03-08T11:08:46;95154.22;;;13.51;42.44
61292;BME280;47165;42.664;23.368;2024-03-08T11:11:25;95142.50;;;13.69;41.74
61292;BME280;47165;42.664;23.368;2024-03-08T11:13:55;95142.41;;;13.96;42.08
61292;BME280;47165;42.664;23.368;2024-03-08T11:18:49;95143.00;;;14.51;40.32
61292;BME280;47165;42.664;23.368;2024-03-08T11:21:17;95137.31;;;14.70;39.05
61292;BME280;47165;42.664;23.368;2024-03-08T11:23:42;95141.53;;;14.73;38.95
61292;BME280;47165;42.664;23.368;2024-03-08T11:26:22;95131.44;;;14.79;38.31
61292;BME280;47165;42.664;23.368;2024-03-08T11:28:49;95132.25;;;14.80;38.67
61292;BME280;47165;42.664;23.368;2024-03-08T11:33:47;95128.31;;;14.98;38.76
61292;BME280;47165;42.664;23.368;2024-03-08T11:36:22;95124.50;;;15.26;38.43
61292;BME280;47165;42.664;23.368;2024-03-08T11:38:50;95128.22;;;15.59;38.64
61292;BME280;47165;42.664;23.368;2024-03-08T11:41:19;95116.75;;;15.96;36.58
61292;BME280;47165;42.664;23.368;2024-03-08T11:43:48;95122.28;;;16.38;35.73
61292;BME280;47165;42.664;23.368;2024-03-08T11:46:16;95120.09;;;16.77;36.60
61292;BME280;47165;42.664;23.368;2024-03-08T11:48:43;95114.56;;;17.02;34.01
61292;BME280;47165;42.664;23.368;2024-03-08T11:51:13;95112.16;;;17.11;33.03
61292;BME280;47165;42.664;23.368;2024-03-08T11:53:40;95117.41;;;17.11;32.58
61292;BME280;47165;42.664;23.368;2024-03-08T11:56:10;95114.19;;;17.07;32.81
61292;BME280;47165;42.664;23.368;2024-03-08T11:58:37;95116.00;;;16.95;32.50
61292;BME280;47165;42.664;23.368;2024-03-08T12:01:07;95107.16;;;16.85;33.73
61292;BME280;47165;42.664;23.368;2024-03-08T12:03:42;95119.25;;;16.99;34.26
61292;BME280;47165;42.664;23.368;2024-03-08T12:06:09;95113.06;;;17.21;32.45
61292;BME280;47165;42.664;23.368;2024-03-08T12:08:35;95106.28;;;17.39;31.49
61292;BME280;47165;42.664;23.368;2024-03-08T12:11:03;95106.63;;;17.67;32.08
61292;BME280;47165;42.664;23.368;2024-03-08T12:13:32;95104.66;;;18.01;32.82
61292;BME280;47165;42.664;23.368;2024-03-08T12:16:02;95105.09;;;18.37;32.48
61292;BME280;47165;42.664;23.368;2024-03-08T12:18:33;95101.59;;;18.67;31.67
61292;BME280;47165;42.664;23.368;2024-03-08T12:21:06;95101.38;;;18.80;30.27
61292;BME280;47165;42.664;23.368;2024-03-08T12:23:33;95100.31;;;18.83;30.52
61292;BME280;47165;42.664;23.368;2024-03-08T12:28:44;95094.50;;;18.58;30.27
61292;BME280;47165;42.664;23.368;2024-03-08T12:31:14;95103.44;;;18.36;30.58
61292;BME280;47165;42.664;23.368;2024-03-08T12:33:51;95102.97;;;18.21;30.42
61292;BME280;47165;42.664;23.368;2024-03-08T12:36:18;95100.03;;;18.24;30.86
61292;BME280;47165;42.664;23.368;2024-03-08T12:38:48;95088.00;;;18.41;29.99
61292;BME280;47165;42.664;23.368;2024-03-08T12:41:17;95088.50;;;18.66;30.56
61292;BME280;47165;42.664;23.368;2024-03-08T12:43:44;95084.91;;;18.67;30.34
61292;BME280;47165;42.664;23.368;2024-03-08T12:46:19;95087.38;;;18.89;30.37
61292;BME280;47165;42.664;23.368;2024-03-08T12:48:51;95081.41;;;19.17;29.52
61292;BME280;47165;42.664;23.368;2024-03-08T12:51:20;95082.41;;;19.55;30.03
61292;BME280;47165;42.664;23.368;2024-03-08T12:53:46;95083.91;;;19.86;29.21
61292;BME280;47165;42.664;23.368;2024-03-08T12:56:33;95077.44;;;20.18;28.99
61292;BME280;47165;42.664;23.368;2024-03-08T12:58:59;95065.63;;;20.40;27.81
61292;BME280;47165;42.664;23.368;2024-03-08T13:01:25;95083.69;;;20.55;27.36
61292;BME280;47165;42.664;23.368;2024-03-08T13:03:52;95078.13;;;20.67;27.67
61292;BME280;47165;42.664;23.368;2024-03-08T13:06:18;95079.31;;;20.73;27.41
61292;BME280;47165;42.664;23.368;2024-03-08T13:08:44;95077.03;;;20.88;27.33
61292;BME280;47165;42.664;23.368;2024-03-08T13:11:11;95079.78;;;20.96;27.38
61292;BME280;47165;42.664;23.368;2024-03-08T13:13:37;95074.22;;;21.07;27.18
61292;BME280;47165;42.664;23.368;2024-03-08T13:16:06;95076.09;;;21.25;27.05